This is the latest recevied weather packets stored in our database for station/object W2BP-13. If no packets are shown the sender has not sent any weather packets the latest 10 day(s).
| Time | Temp. | Humidity | Pressure | Rain* | Wind** | Luminosity | Snow |
|---|---|---|---|---|---|---|---|
| 1777563633 | 13.33° C | 63% | 1026.1 hPa | 0 mm | - | - | - |
| 1777562733 | 12.78° C | 65% | 1026.4 hPa | 0 mm | - | - | - |
| 1777561833 | 12.22° C | 68% | 1026.5 hPa | 0 mm | - | - | - |
| 1777560932 | 11.11° C | 70% | 1026.5 hPa | 0 mm | - | - | - |
| 1777560033 | 11.67° C | 71% | 1026.2 hPa | 0 mm | - | - | - |
| 1777559133 | 10.56° C | 73% | 1026.3 hPa | 0 mm | - | - | - |
| 1777558233 | 12.22° C | 66% | 1026.1 hPa | 0 mm | - | - | - |
| 1777557332 | 10° C | 71% | 1026 hPa | 0 mm | - | - | - |
| 1777556433 | 8.33° C | 77% | 1025.8 hPa | 0 mm | - | - | - |
| 1777555533 | 6.11° C | 86% | 1025.8 hPa | 0 mm | - | - | - |
| 1777554633 | 5.56° C | 88% | 1025.7 hPa | 0 mm | - | - | - |
| 1777553733 | 5.56° C | 88% | 1025.3 hPa | 0 mm | - | - | - |
| 1777552833 | 5.56° C | 87% | 1025.2 hPa | 0 mm | - | - | - |
| 1777551932 | 6.11° C | 85% | 1025.5 hPa | 0 mm | - | - | - |
| 1777551033 | 6.11° C | 84% | 1025.5 hPa | 0 mm | - | - | - |
| 1777550133 | 6.67° C | 83% | 1025.6 hPa | 0 mm | - | - | - |
| 1777549234 | 7.22° C | 81% | 1025.5 hPa | 0 mm | - | - | - |
| 1777548333 | 7.22° C | 81% | 1025.5 hPa | 0 mm | - | - | - |
| 1777547432 | 6.67° C | 83% | 1025.3 hPa | 0 mm | - | - | - |
| 1777546532 | 6.67° C | 82% | 1025.1 hPa | 0 mm | - | - | - |
| 1777545633 | 7.22° C | 82% | 1025.1 hPa | 0 mm | - | - | - |
| 1777544733 | 7.22° C | 81% | 1025 hPa | 0 mm | - | - | - |
| 1777542932 | 7.78° C | 78% | 1025 hPa | 0 mm | - | - | - |
| 1777542033 | 7.78° C | 78% | 1025.2 hPa | 0 mm | - | - | - |
| 1777541133 | 7.78° C | 77% | 1025 hPa | 0 mm | - | - | - |
* Rain latest hour (hover to see other rain measurements)
** Current wind speed in m/s (hover to see current wind gust speed)